sensor_id;sensor_type;location;lat;lon;timestamp;P1;durP1;ratioP1;P2;durP2;ratioP2
52043;SDS011;38053;53.100;6.078;2024-02-21T00:00:16;19.17;;;5.40;;
52043;SDS011;38053;53.100;6.078;2024-02-21T00:02:42;22.90;;;5.30;;
52043;SDS011;38053;53.100;6.078;2024-02-21T00:05:08;28.33;;;4.70;;
52043;SDS011;38053;53.100;6.078;2024-02-21T00:07:33;23.20;;;4.93;;
52043;SDS011;38053;53.100;6.078;2024-02-21T00:09:59;23.10;;;5.43;;
52043;SDS011;38053;53.100;6.078;2024-02-21T00:12:25;21.75;;;4.40;;
52043;SDS011;38053;53.100;6.078;2024-02-21T00:14:51;28.27;;;5.18;;
52043;SDS011;38053;53.100;6.078;2024-02-21T00:17:16;36.05;;;5.97;;
52043;SDS011;38053;53.100;6.078;2024-02-21T00:19:42;33.83;;;6.43;;
52043;SDS011;38053;53.100;6.078;2024-02-21T00:22:11;25.10;;;5.38;;
52043;SDS011;38053;53.100;6.078;2024-02-21T00:24:36;40.63;;;6.25;;
52043;SDS011;38053;53.100;6.078;2024-02-21T00:27:02;26.60;;;5.97;;
52043;SDS011;38053;53.100;6.078;2024-02-21T00:29:28;32.10;;;5.85;;
52043;SDS011;38053;53.100;6.078;2024-02-21T00:31:54;24.85;;;6.70;;
52043;SDS011;38053;53.100;6.078;2024-02-21T00:34:19;39.85;;;6.80;;
52043;SDS011;38053;53.100;6.078;2024-02-21T00:36:45;22.92;;;5.68;;
52043;SDS011;38053;53.100;6.078;2024-02-21T00:39:11;33.58;;;6.53;;
52043;SDS011;38053;53.100;6.078;2024-02-21T00:41:36;37.78;;;6.53;;
52043;SDS011;38053;53.100;6.078;2024-02-21T00:44:02;35.50;;;6.43;;
52043;SDS011;38053;53.100;6.078;2024-02-21T00:46:30;34.13;;;6.47;;
52043;SDS011;38053;53.100;6.078;2024-02-21T00:48:56;37.55;;;7.00;;
52043;SDS011;38053;53.100;6.078;2024-02-21T00:51:21;39.63;;;7.63;;
52043;SDS011;38053;53.100;6.078;2024-02-21T00:53:47;28.73;;;8.82;;
52043;SDS011;38053;53.100;6.078;2024-02-21T00:56:13;22.83;;;7.20;;
52043;SDS011;38053;53.100;6.078;2024-02-21T00:58:38;39.35;;;7.32;;
52043;SDS011;38053;53.100;6.078;2024-02-21T01:01:04;32.33;;;8.00;;
52043;SDS011;38053;53.100;6.078;2024-02-21T01:03:29;36.97;;;8.77;;
52043;SDS011;38053;53.100;6.078;2024-02-21T01:05:55;37.00;;;8.85;;
52043;SDS011;38053;53.100;6.078;2024-02-21T01:08:21;43.78;;;10.00;;
52043;SDS011;38053;53.100;6.078;2024-02-21T01:10:46;34.00;;;7.13;;
52043;SDS011;38053;53.100;6.078;2024-02-21T01:13:12;27.55;;;7.07;;
52043;SDS011;38053;53.100;6.078;2024-02-21T01:15:37;25.00;;;7.72;;
52043;SDS011;38053;53.100;6.078;2024-02-21T01:18:03;36.95;;;9.07;;
52043;SDS011;38053;53.100;6.078;2024-02-21T01:20:30;34.28;;;8.20;;
52043;SDS011;38053;53.100;6.078;2024-02-21T01:22:55;37.50;;;9.30;;
52043;SDS011;38053;53.100;6.078;2024-02-21T01:25:21;32.67;;;9.27;;
52043;SDS011;38053;53.100;6.078;2024-02-21T01:27:48;33.35;;;8.75;;
52043;SDS011;38053;53.100;6.078;2024-02-21T01:30:13;22.00;;;8.18;;
52043;SDS011;38053;53.100;6.078;2024-02-21T01:32:39;38.08;;;10.25;;
52043;SDS011;38053;53.100;6.078;2024-02-21T01:35:06;40.65;;;9.10;;
52043;SDS011;38053;53.100;6.078;2024-02-21T01:37:32;36.33;;;9.23;;
52043;SDS011;38053;53.100;6.078;2024-02-21T01:39:58;28.45;;;7.38;;
52043;SDS011;38053;53.100;6.078;2024-02-21T01:42:23;41.95;;;11.93;;
52043;SDS011;38053;53.100;6.078;2024-02-21T01:44:49;33.00;;;9.70;;
52043;SDS011;38053;53.100;6.078;2024-02-21T01:47:15;50.17;;;9.48;;
52043;SDS011;38053;53.100;6.078;2024-02-21T01:49:41;32.25;;;8.13;;
52043;SDS011;38053;53.100;6.078;2024-02-21T01:52:07;37.72;;;8.55;;
52043;SDS011;38053;53.100;6.078;2024-02-21T01:54:33;44.70;;;7.15;;
52043;SDS011;38053;53.100;6.078;2024-02-21T01:56:59;35.25;;;9.52;;
52043;SDS011;38053;53.100;6.078;2024-02-21T01:59:25;34.65;;;8.68;;
52043;SDS011;38053;53.100;6.078;2024-02-21T02:01:51;34.17;;;8.00;;
52043;SDS011;38053;53.100;6.078;2024-02-21T02:04:18;55.65;;;12.07;;
52043;SDS011;38053;53.100;6.078;2024-02-21T02:06:45;33.63;;;8.45;;
52043;SDS011;38053;53.100;6.078;2024-02-21T02:09:11;36.13;;;9.75;;
52043;SDS011;38053;53.100;6.078;2024-02-21T02:11:38;52.13;;;10.07;;
52043;SDS011;38053;53.100;6.078;2024-02-21T02:14:04;40.75;;;8.93;;
52043;SDS011;38053;53.100;6.078;2024-02-21T02:16:30;32.78;;;8.40;;
52043;SDS011;38053;53.100;6.078;2024-02-21T02:18:55;48.60;;;8.60;;
52043;SDS011;38053;53.100;6.078;2024-02-21T02:21:29;53.17;;;8.45;;
52043;SDS011;38053;53.100;6.078;2024-02-21T02:23:57;34.08;;;6.90;;
52043;SDS011;38053;53.100;6.078;2024-02-21T02:26:24;40.15;;;7.78;;
52043;SDS011;38053;53.100;6.078;2024-02-21T02:28:49;37.63;;;8.75;;
52043;SDS011;38053;53.100;6.078;2024-02-21T02:31:15;43.30;;;10.48;;
52043;SDS011;38053;53.100;6.078;2024-02-21T02:33:42;40.17;;;8.00;;
52043;SDS011;38053;53.100;6.078;2024-02-21T02:36:09;52.35;;;9.52;;
52043;SDS011;38053;53.100;6.078;2024-02-21T02:38:35;41.38;;;9.63;;
52043;SDS011;38053;53.100;6.078;2024-02-21T02:41:00;41.95;;;9.23;;
52043;SDS011;38053;53.100;6.078;2024-02-21T02:43:26;43.90;;;9.57;;
52043;SDS011;38053;53.100;6.078;2024-02-21T02:45:51;48.30;;;9.88;;
52043;SDS011;38053;53.100;6.078;2024-02-21T02:48:17;43.78;;;8.73;;
52043;SDS011;38053;53.100;6.078;2024-02-21T02:50:44;56.58;;;10.80;;
52043;SDS011;38053;53.100;6.078;2024-02-21T02:53:11;51.92;;;9.10;;
52043;SDS011;38053;53.100;6.078;2024-02-21T02:55:36;43.90;;;9.02;;
52043;SDS011;38053;53.100;6.078;2024-02-21T02:58:02;44.45;;;10.40;;
52043;SDS011;38053;53.100;6.078;2024-02-21T03:00:28;39.95;;;7.80;;
52043;SDS011;38053;53.100;6.078;2024-02-21T03:02:53;44.25;;;9.90;;
52043;SDS011;38053;53.100;6.078;2024-02-21T03:05:20;44.30;;;9.10;;
52043;SDS011;38053;53.100;6.078;2024-02-21T03:07:46;43.38;;;8.07;;
52043;SDS011;38053;53.100;6.078;2024-02-21T03:10:12;40.53;;;9.55;;
52043;SDS011;38053;53.100;6.078;2024-02-21T03:12:39;32.38;;;7.35;;
52043;SDS011;38053;53.100;6.078;2024-02-21T03:15:05;38.25;;;9.35;;
52043;SDS011;38053;53.100;6.078;2024-02-21T03:17:31;45.95;;;9.85;;
52043;SDS011;38053;53.100;6.078;2024-02-21T03:19:59;42.00;;;9.50;;
52043;SDS011;38053;53.100;6.078;2024-02-21T03:22:25;36.65;;;8.65;;
52043;SDS011;38053;53.100;6.078;2024-02-21T03:24:51;33.63;;;7.25;;
52043;SDS011;38053;53.100;6.078;2024-02-21T03:27:17;37.10;;;7.43;;
52043;SDS011;38053;53.100;6.078;2024-02-21T03:29:42;37.15;;;8.00;;
52043;SDS011;38053;53.100;6.078;2024-02-21T03:32:11;42.50;;;10.00;;
52043;SDS011;38053;53.100;6.078;2024-02-21T03:34:37;34.97;;;7.70;;
52043;SDS011;38053;53.100;6.078;2024-02-21T03:37:02;42.05;;;10.02;;
52043;SDS011;38053;53.100;6.078;2024-02-21T03:39:30;38.03;;;10.50;;
52043;SDS011;38053;53.100;6.078;2024-02-21T03:41:57;26.33;;;7.28;;
52043;SDS011;38053;53.100;6.078;2024-02-21T03:44:23;38.00;;;9.77;;
52043;SDS011;38053;53.100;6.078;2024-02-21T03:46:48;43.25;;;8.40;;
52043;SDS011;38053;53.100;6.078;2024-02-21T03:49:14;35.15;;;8.48;;
52043;SDS011;38053;53.100;6.078;2024-02-21T03:51:39;46.58;;;9.07;;
52043;SDS011;38053;53.100;6.078;2024-02-21T03:54:05;44.58;;;10.60;;
52043;SDS011;38053;53.100;6.078;2024-02-21T03:56:31;41.70;;;10.73;;
52043;SDS011;38053;53.100;6.078;2024-02-21T03:58:56;44.65;;;9.77;;
52043;SDS011;38053;53.100;6.078;2024-02-21T04:01:23;37.83;;;9.38;;
52043;SDS011;38053;53.100;6.078;2024-02-21T04:03:48;34.65;;;8.02;;
52043;SDS011;38053;53.100;6.078;2024-02-21T04:06:14;48.53;;;10.93;;
52043;SDS011;38053;53.100;6.078;2024-02-21T04:08:39;38.05;;;7.95;;
52043;SDS011;38053;53.100;6.078;2024-02-21T04:11:08;27.52;;;9.50;;
52043;SDS011;38053;53.100;6.078;2024-02-21T04:13:33;36.78;;;9.57;;
52043;SDS011;38053;53.100;6.078;2024-02-21T04:15:59;35.03;;;9.05;;
52043;SDS011;38053;53.100;6.078;2024-02-21T04:18:26;34.63;;;10.05;;
52043;SDS011;38053;53.100;6.078;2024-02-21T04:20:51;50.78;;;9.18;;
52043;SDS011;38053;53.100;6.078;2024-02-21T04:23:17;48.45;;;11.98;;
52043;SDS011;38053;53.100;6.078;2024-02-21T04:25:43;46.25;;;10.30;;
52043;SDS011;38053;53.100;6.078;2024-02-21T04:28:08;40.88;;;9.20;;
52043;SDS011;38053;53.100;6.078;2024-02-21T04:30:34;39.85;;;8.93;;
52043;SDS011;38053;53.100;6.078;2024-02-21T04:32:59;42.33;;;7.75;;
52043;SDS011;38053;53.100;6.078;2024-02-21T04:35:25;57.92;;;11.52;;
52043;SDS011;38053;53.100;6.078;2024-02-21T04:37:50;37.80;;;6.95;;
52043;SDS011;38053;53.100;6.078;2024-02-21T04:40:16;54.15;;;9.82;;
52043;SDS011;38053;53.100;6.078;2024-02-21T04:42:42;53.03;;;9.20;;
52043;SDS011;38053;53.100;6.078;2024-02-21T04:45:08;43.67;;;9.32;;
52043;SDS011;38053;53.100;6.078;2024-02-21T04:47:34;42.55;;;9.77;;
52043;SDS011;38053;53.100;6.078;2024-02-21T04:49:59;39.88;;;9.35;;
52043;SDS011;38053;53.100;6.078;2024-02-21T04:52:25;40.88;;;9.02;;
52043;SDS011;38053;53.100;6.078;2024-02-21T04:54:50;35.47;;;7.15;;
52043;SDS011;38053;53.100;6.078;2024-02-21T04:57:17;43.47;;;10.25;;
52043;SDS011;38053;53.100;6.078;2024-02-21T04:59:45;35.70;;;8.00;;
52043;SDS011;38053;53.100;6.078;2024-02-21T05:02:14;42.75;;;8.93;;
52043;SDS011;38053;53.100;6.078;2024-02-21T05:04:43;43.53;;;10.10;;
52043;SDS011;38053;53.100;6.078;2024-02-21T05:07:09;38.05;;;8.27;;
52043;SDS011;38053;53.100;6.078;2024-02-21T05:09:36;35.38;;;8.00;;
52043;SDS011;38053;53.100;6.078;2024-02-21T05:12:02;56.88;;;11.93;;
52043;SDS011;38053;53.100;6.078;2024-02-21T05:14:28;48.17;;;8.43;;
52043;SDS011;38053;53.100;6.078;2024-02-21T05:16:54;38.67;;;9.15;;
52043;SDS011;38053;53.100;6.078;2024-02-21T05:19:20;36.75;;;8.88;;
52043;SDS011;38053;53.100;6.078;2024-02-21T05:21:45;49.17;;;10.57;;
52043;SDS011;38053;53.100;6.078;2024-02-21T05:24:11;43.30;;;8.55;;
52043;SDS011;38053;53.100;6.078;2024-02-21T05:26:37;32.42;;;8.70;;
52043;SDS011;38053;53.100;6.078;2024-02-21T05:29:03;41.33;;;9.07;;
52043;SDS011;38053;53.100;6.078;2024-02-21T05:34:16;40.13;;;8.43;;
52043;SDS011;38053;53.100;6.078;2024-02-21T05:36:41;45.63;;;10.48;;
52043;SDS011;38053;53.100;6.078;2024-02-21T05:39:07;35.50;;;8.27;;
52043;SDS011;38053;53.100;6.078;2024-02-21T05:41:33;35.80;;;8.85;;
52043;SDS011;38053;53.100;6.078;2024-02-21T05:43:58;54.10;;;10.45;;
52043;SDS011;38053;53.100;6.078;2024-02-21T05:46:24;35.60;;;7.82;;
52043;SDS011;38053;53.100;6.078;2024-02-21T05:48:50;41.33;;;11.45;;
52043;SDS011;38053;53.100;6.078;2024-02-21T05:51:17;35.70;;;9.73;;
52043;SDS011;38053;53.100;6.078;2024-02-21T05:53:50;30.60;;;9.07;;
52043;SDS011;38053;53.100;6.078;2024-02-21T05:56:16;34.95;;;10.27;;
52043;SDS011;38053;53.100;6.078;2024-02-21T05:58:43;39.10;;;9.25;;
52043;SDS011;38053;53.100;6.078;2024-02-21T06:01:08;38.22;;;8.68;;
52043;SDS011;38053;53.100;6.078;2024-02-21T06:03:34;45.10;;;9.63;;
52043;SDS011;38053;53.100;6.078;2024-02-21T06:06:01;32.65;;;8.10;;
52043;SDS011;38053;53.100;6.078;2024-02-21T06:08:29;57.72;;;10.45;;
52043;SDS011;38053;53.100;6.078;2024-02-21T06:10:55;37.88;;;11.57;;
52043;SDS011;38053;53.100;6.078;2024-02-21T06:13:21;42.13;;;9.88;;
52043;SDS011;38053;53.100;6.078;2024-02-21T06:15:48;35.72;;;9.07;;
52043;SDS011;38053;53.100;6.078;2024-02-21T06:18:15;44.80;;;10.60;;
52043;SDS011;38053;53.100;6.078;2024-02-21T06:20:44;36.83;;;9.13;;
52043;SDS011;38053;53.100;6.078;2024-02-21T06:23:11;37.78;;;8.95;;
52043;SDS011;38053;53.100;6.078;2024-02-21T06:25:37;42.05;;;12.50;;
52043;SDS011;38053;53.100;6.078;2024-02-21T06:28:03;40.25;;;9.80;;
52043;SDS011;38053;53.100;6.078;2024-02-21T06:30:29;42.75;;;11.10;;
52043;SDS011;38053;53.100;6.078;2024-02-21T06:32:55;56.05;;;11.48;;
52043;SDS011;38053;53.100;6.078;2024-02-21T06:35:24;40.70;;;10.50;;
52043;SDS011;38053;53.100;6.078;2024-02-21T06:37:50;42.83;;;11.85;;
52043;SDS011;38053;53.100;6.078;2024-02-21T06:40:17;56.05;;;14.50;;
52043;SDS011;38053;53.100;6.078;2024-02-21T06:42:43;57.53;;;16.60;;
52043;SDS011;38053;53.100;6.078;2024-02-21T06:45:08;53.95;;;17.00;;
52043;SDS011;38053;53.100;6.078;2024-02-21T06:47:38;79.05;;;16.27;;
52043;SDS011;38053;53.100;6.078;2024-02-21T06:50:04;61.13;;;16.85;;
52043;SDS011;38053;53.100;6.078;2024-02-21T06:52:29;84.03;;;18.63;;
52043;SDS011;38053;53.100;6.078;2024-02-21T06:54:56;71.55;;;19.33;;
52043;SDS011;38053;53.100;6.078;2024-02-21T06:57:24;90.68;;;19.67;;
52043;SDS011;38053;53.100;6.078;2024-02-21T06:59:49;78.35;;;20.30;;
52043;SDS011;38053;53.100;6.078;2024-02-21T07:02:15;74.80;;;19.23;;
52043;SDS011;38053;53.100;6.078;2024-02-21T07:04:41;86.05;;;21.33;;
52043;SDS011;38053;53.100;6.078;2024-02-21T07:07:06;63.50;;;18.42;;
52043;SDS011;38053;53.100;6.078;2024-02-21T07:09:32;70.15;;;19.38;;
52043;SDS011;38053;53.100;6.078;2024-02-21T07:11:58;74.57;;;22.30;;
52043;SDS011;38053;53.100;6.078;2024-02-21T07:14:35;66.47;;;19.52;;
52043;SDS011;38053;53.100;6.078;2024-02-21T07:17:01;64.70;;;18.70;;
52043;SDS011;38053;53.100;6.078;2024-02-21T07:19:27;62.72;;;19.77;;
52043;SDS011;38053;53.100;6.078;2024-02-21T07:21:52;59.83;;;18.60;;
52043;SDS011;38053;53.100;6.078;2024-02-21T07:24:18;64.45;;;21.42;;
52043;SDS011;38053;53.100;6.078;2024-02-21T07:26:44;90.05;;;19.20;;
52043;SDS011;38053;53.100;6.078;2024-02-21T07:29:10;75.97;;;20.92;;
52043;SDS011;38053;53.100;6.078;2024-02-21T07:31:41;73.45;;;17.65;;
52043;SDS011;38053;53.100;6.078;2024-02-21T07:34:08;54.45;;;14.32;;
52043;SDS011;38053;53.100;6.078;2024-02-21T07:36:34;49.47;;;14.68;;
52043;SDS011;38053;53.100;6.078;2024-02-21T07:38:59;56.33;;;13.85;;
52043;SDS011;38053;53.100;6.078;2024-02-21T07:41:25;53.58;;;14.93;;
52043;SDS011;38053;53.100;6.078;2024-02-21T07:43:51;50.45;;;11.43;;
52043;SDS011;38053;53.100;6.078;2024-02-21T07:46:18;52.38;;;13.85;;
52043;SDS011;38053;53.100;6.078;2024-02-21T07:48:45;54.50;;;11.68;;
52043;SDS011;38053;53.100;6.078;2024-02-21T07:51:10;42.03;;;11.10;;
52043;SDS011;38053;53.100;6.078;2024-02-21T07:53:36;44.35;;;10.48;;
52043;SDS011;38053;53.100;6.078;2024-02-21T07:56:03;40.25;;;10.55;;
52043;SDS011;38053;53.100;6.078;2024-02-21T07:58:29;29.00;;;10.13;;
52043;SDS011;38053;53.100;6.078;2024-02-21T08:00:55;32.72;;;10.00;;
52043;SDS011;38053;53.100;6.078;2024-02-21T08:03:20;35.28;;;10.15;;
52043;SDS011;38053;53.100;6.078;2024-02-21T08:05:46;24.90;;;8.25;;
52043;SDS011;38053;53.100;6.078;2024-02-21T08:08:12;31.60;;;8.98;;
52043;SDS011;38053;53.100;6.078;2024-02-21T08:10:43;25.27;;;7.93;;
52043;SDS011;38053;53.100;6.078;2024-02-21T08:13:14;28.52;;;10.18;;
52043;SDS011;38053;53.100;6.078;2024-02-21T08:15:40;34.08;;;8.98;;
52043;SDS011;38053;53.100;6.078;2024-02-21T08:18:07;29.88;;;10.38;;
52043;SDS011;38053;53.100;6.078;2024-02-21T08:20:33;33.38;;;10.43;;
52043;SDS011;38053;53.100;6.078;2024-02-21T08:22:58;29.15;;;11.23;;
52043;SDS011;38053;53.100;6.078;2024-02-21T08:25:24;40.75;;;11.23;;
52043;SDS011;38053;53.100;6.078;2024-02-21T08:27:50;39.90;;;10.38;;
52043;SDS011;38053;53.100;6.078;2024-02-21T08:30:16;38.95;;;13.65;;
52043;SDS011;38053;53.100;6.078;2024-02-21T08:32:42;38.25;;;15.27;;
52043;SDS011;38053;53.100;6.078;2024-02-21T08:35:08;41.53;;;15.98;;
52043;SDS011;38053;53.100;6.078;2024-02-21T08:37:35;45.03;;;18.25;;
52043;SDS011;38053;53.100;6.078;2024-02-21T08:40:00;36.67;;;16.23;;
52043;SDS011;38053;53.100;6.078;2024-02-21T08:42:36;45.28;;;19.58;;
52043;SDS011;38053;53.100;6.078;2024-02-21T08:45:03;44.97;;;19.92;;
52043;SDS011;38053;53.100;6.078;2024-02-21T08:47:29;38.60;;;20.27;;
52043;SDS011;38053;53.100;6.078;2024-02-21T08:49:58;39.92;;;20.55;;
52043;SDS011;38053;53.100;6.078;2024-02-21T08:52:24;35.85;;;19.90;;
52043;SDS011;38053;53.100;6.078;2024-02-21T08:54:49;44.80;;;20.60;;
52043;SDS011;38053;53.100;6.078;2024-02-21T08:57:18;54.00;;;23.85;;
52043;SDS011;38053;53.100;6.078;2024-02-21T08:59:44;48.15;;;24.38;;
52043;SDS011;38053;53.100;6.078;2024-02-21T09:02:10;44.80;;;22.55;;
52043;SDS011;38053;53.100;6.078;2024-02-21T09:04:35;42.53;;;21.70;;
52043;SDS011;38053;53.100;6.078;2024-02-21T09:07:01;47.08;;;22.38;;
52043;SDS011;38053;53.100;6.078;2024-02-21T09:09:26;44.97;;;23.20;;
52043;SDS011;38053;53.100;6.078;2024-02-21T09:11:53;37.55;;;22.92;;
52043;SDS011;38053;53.100;6.078;2024-02-21T09:14:19;44.08;;;23.33;;
52043;SDS011;38053;53.100;6.078;2024-02-21T09:16:44;42.00;;;24.02;;
52043;SDS011;38053;53.100;6.078;2024-02-21T09:19:10;40.60;;;25.45;;
52043;SDS011;38053;53.100;6.078;2024-02-21T09:21:39;34.75;;;23.27;;
52043;SDS011;38053;53.100;6.078;2024-02-21T09:24:05;41.38;;;24.38;;
52043;SDS011;38053;53.100;6.078;2024-02-21T09:26:31;40.42;;;24.50;;
52043;SDS011;38053;53.100;6.078;2024-02-21T09:28:57;48.22;;;25.33;;
52043;SDS011;38053;53.100;6.078;2024-02-21T09:31:22;37.42;;;23.60;;
52043;SDS011;38053;53.100;6.078;2024-02-21T09:33:48;42.42;;;23.75;;
52043;SDS011;38053;53.100;6.078;2024-02-21T09:36:16;43.60;;;24.98;;
52043;SDS011;38053;53.100;6.078;2024-02-21T09:38:45;43.83;;;24.13;;
52043;SDS011;38053;53.100;6.078;2024-02-21T09:44:06;40.63;;;23.10;;
52043;SDS011;38053;53.100;6.078;2024-02-21T09:49:34;38.05;;;22.83;;
52043;SDS011;38053;53.100;6.078;2024-02-21T09:52:03;40.80;;;23.60;;
52043;SDS011;38053;53.100;6.078;2024-02-21T09:54:32;32.80;;;20.90;;
52043;SDS011;38053;53.100;6.078;2024-02-21T09:57:01;35.85;;;21.52;;
52043;SDS011;38053;53.100;6.078;2024-02-21T09:59:28;30.52;;;20.33;;
52043;SDS011;38053;53.100;6.078;2024-02-21T10:01:55;32.28;;;20.27;;
52043;SDS011;38053;53.100;6.078;2024-02-21T10:04:21;32.35;;;21.00;;
52043;SDS011;38053;53.100;6.078;2024-02-21T10:06:47;35.10;;;21.42;;
52043;SDS011;38053;53.100;6.078;2024-02-21T10:09:19;32.13;;;20.50;;
52043;SDS011;38053;53.100;6.078;2024-02-21T10:11:47;41.13;;;20.55;;
52043;SDS011;38053;53.100;6.078;2024-02-21T10:14:14;34.10;;;17.55;;
52043;SDS011;38053;53.100;6.078;2024-02-21T10:16:44;25.77;;;19.35;;
52043;SDS011;38053;53.100;6.078;2024-02-21T10:19:18;30.40;;;19.70;;
52043;SDS011;38053;53.100;6.078;2024-02-21T10:30:50;34.53;;;17.65;;
52043;SDS011;38053;53.100;6.078;2024-02-21T10:33:17;32.75;;;18.60;;
52043;SDS011;38053;53.100;6.078;2024-02-21T10:35:52;32.35;;;19.15;;
52043;SDS011;38053;53.100;6.078;2024-02-21T10:38:27;35.60;;;19.73;;
52043;SDS011;38053;53.100;6.078;2024-02-21T10:40:56;32.13;;;19.17;;
52043;SDS011;38053;53.100;6.078;2024-02-21T10:43:28;34.85;;;18.95;;
52043;SDS011;38053;53.100;6.078;2024-02-21T10:45:59;24.85;;;16.13;;
52043;SDS011;38053;53.100;6.078;2024-02-21T10:51:33;38.40;;;20.08;;
52043;SDS011;38053;53.100;6.078;2024-02-21T11:01:12;30.90;;;19.23;;
52043;SDS011;38053;53.100;6.078;2024-02-21T11:03:52;35.40;;;21.00;;
52043;SDS011;38053;53.100;6.078;2024-02-21T11:07:14;26.77;;;18.92;;
52043;SDS011;38053;53.100;6.078;2024-02-21T11:15:10;32.38;;;20.30;;
52043;SDS011;38053;53.100;6.078;2024-02-21T11:20:50;29.02;;;18.88;;
52043;SDS011;38053;53.100;6.078;2024-02-21T11:26:44;30.88;;;20.13;;
52043;SDS011;38053;53.100;6.078;2024-02-21T11:29:14;28.70;;;19.67;;
52043;SDS011;38053;53.100;6.078;2024-02-21T11:31:56;30.13;;;21.30;;
52043;SDS011;38053;53.100;6.078;2024-02-21T11:34:22;27.55;;;17.92;;
52043;SDS011;38053;53.100;6.078;2024-02-21T11:36:48;33.00;;;19.60;;
52043;SDS011;38053;53.100;6.078;2024-02-21T11:39:23;31.13;;;19.77;;
52043;SDS011;38053;53.100;6.078;2024-02-21T11:42:06;25.08;;;17.13;;
52043;SDS011;38053;53.100;6.078;2024-02-21T11:44:35;29.55;;;18.13;;
52043;SDS011;38053;53.100;6.078;2024-02-21T11:47:11;34.50;;;18.10;;
52043;SDS011;38053;53.100;6.078;2024-02-21T11:49:37;36.80;;;20.00;;
52043;SDS011;38053;53.100;6.078;2024-02-21T11:52:07;33.47;;;20.38;;
52043;SDS011;38053;53.100;6.078;2024-02-21T11:54:51;31.10;;;20.13;;
52043;SDS011;38053;53.100;6.078;2024-02-21T11:57:19;32.17;;;18.75;;
52043;SDS011;38053;53.100;6.078;2024-02-21T11:59:45;26.13;;;17.92;;
52043;SDS011;38053;53.100;6.078;2024-02-21T12:02:12;32.05;;;17.30;;
52043;SDS011;38053;53.100;6.078;2024-02-21T12:04:38;25.80;;;15.95;;
52043;SDS011;38053;53.100;6.078;2024-02-21T12:07:05;28.90;;;17.15;;
52043;SDS011;38053;53.100;6.078;2024-02-21T12:09:31;30.00;;;17.35;;
52043;SDS011;38053;53.100;6.078;2024-02-21T12:12:03;21.45;;;14.27;;
52043;SDS011;38053;53.100;6.078;2024-02-21T12:14:33;27.90;;;17.17;;
52043;SDS011;38053;53.100;6.078;2024-02-21T12:17:00;23.48;;;15.57;;
52043;SDS011;38053;53.100;6.078;2024-02-21T12:19:28;22.92;;;14.70;;
52043;SDS011;38053;53.100;6.078;2024-02-21T12:21:54;20.23;;;12.93;;
52043;SDS011;38053;53.100;6.078;2024-02-21T12:24:26;28.85;;;13.65;;
52043;SDS011;38053;53.100;6.078;2024-02-21T12:26:53;26.33;;;13.37;;
52043;SDS011;38053;53.100;6.078;2024-02-21T12:29:19;22.77;;;12.52;;
52043;SDS011;38053;53.100;6.078;2024-02-21T12:31:45;19.80;;;13.77;;
52043;SDS011;38053;53.100;6.078;2024-02-21T12:34:11;22.63;;;12.40;;
52043;SDS011;38053;53.100;6.078;2024-02-21T12:36:46;19.50;;;11.40;;
52043;SDS011;38053;53.100;6.078;2024-02-21T12:39:19;18.83;;;10.80;;
52043;SDS011;38053;53.100;6.078;2024-02-21T12:41:45;19.27;;;11.88;;
52043;SDS011;38053;53.100;6.078;2024-02-21T12:44:11;21.90;;;10.77;;
52043;SDS011;38053;53.100;6.078;2024-02-21T12:46:52;18.77;;;11.38;;
52043;SDS011;38053;53.100;6.078;2024-02-21T12:49:23;21.95;;;12.88;;
52043;SDS011;38053;53.100;6.078;2024-02-21T13:14:34;20.58;;;9.70;;
52043;SDS011;38053;53.100;6.078;2024-02-21T13:17:00;17.20;;;9.13;;
52043;SDS011;38053;53.100;6.078;2024-02-21T13:45:12;14.88;;;7.55;;
52043;SDS011;38053;53.100;6.078;2024-02-21T13:47:42;11.90;;;7.13;;
52043;SDS011;38053;53.100;6.078;2024-02-21T13:50:08;12.23;;;7.38;;
52043;SDS011;38053;53.100;6.078;2024-02-21T13:52:37;30.38;;;9.25;;
52043;SDS011;38053;53.100;6.078;2024-02-21T13:55:03;13.65;;;7.85;;
52043;SDS011;38053;53.100;6.078;2024-02-21T13:57:29;14.88;;;7.32;;
52043;SDS011;38053;53.100;6.078;2024-02-21T13:59:57;12.45;;;7.05;;
52043;SDS011;38053;53.100;6.078;2024-02-21T14:02:30;11.45;;;7.20;;
52043;SDS011;38053;53.100;6.078;2024-02-21T14:04:56;13.27;;;8.43;;
52043;SDS011;38053;53.100;6.078;2024-02-21T14:07:22;13.57;;;8.18;;
52043;SDS011;38053;53.100;6.078;2024-02-21T14:13:29;13.45;;;8.82;;
52043;SDS011;38053;53.100;6.078;2024-02-21T14:16:13;14.82;;;8.43;;
52043;SDS011;38053;53.100;6.078;2024-02-21T14:18:57;14.68;;;8.30;;
52043;SDS011;38053;53.100;6.078;2024-02-21T14:21:26;12.45;;;7.97;;
52043;SDS011;38053;53.100;6.078;2024-02-21T14:23:53;14.77;;;9.05;;
52043;SDS011;38053;53.100;6.078;2024-02-21T14:26:22;14.27;;;7.93;;
52043;SDS011;38053;53.100;6.078;2024-02-21T14:28:48;17.08;;;9.45;;
52043;SDS011;38053;53.100;6.078;2024-02-21T14:31:17;13.73;;;9.38;;
52043;SDS011;38053;53.100;6.078;2024-02-21T14:33:45;16.30;;;8.65;;
52043;SDS011;38053;53.100;6.078;2024-02-21T14:36:12;17.27;;;9.55;;
52043;SDS011;38053;53.100;6.078;2024-02-21T14:38:45;13.38;;;8.90;;
52043;SDS011;38053;53.100;6.078;2024-02-21T14:41:10;13.20;;;8.48;;
52043;SDS011;38053;53.100;6.078;2024-02-21T14:43:44;15.45;;;10.15;;
52043;SDS011;38053;53.100;6.078;2024-02-21T14:46:11;15.65;;;8.27;;
52043;SDS011;38053;53.100;6.078;2024-02-21T14:48:37;15.32;;;8.65;;
52043;SDS011;38053;53.100;6.078;2024-02-21T14:51:06;14.45;;;9.73;;
52043;SDS011;38053;53.100;6.078;2024-02-21T14:53:32;17.35;;;8.95;;
52043;SDS011;38053;53.100;6.078;2024-02-21T14:55:57;13.60;;;7.82;;
52043;SDS011;38053;53.100;6.078;2024-02-21T14:58:23;15.52;;;9.73;;
52043;SDS011;38053;53.100;6.078;2024-02-21T15:00:49;17.08;;;8.60;;
52043;SDS011;38053;53.100;6.078;2024-02-21T15:03:18;18.27;;;9.13;;
52043;SDS011;38053;53.100;6.078;2024-02-21T15:05:46;17.45;;;9.73;;
52043;SDS011;38053;53.100;6.078;2024-02-21T15:08:12;16.60;;;8.90;;
52043;SDS011;38053;53.100;6.078;2024-02-21T15:10:44;16.10;;;10.63;;
52043;SDS011;38053;53.100;6.078;2024-02-21T16:33:25;18.88;;;10.23;;
52043;SDS011;38053;53.100;6.078;2024-02-21T16:35:52;18.45;;;10.15;;
52043;SDS011;38053;53.100;6.078;2024-02-21T16:38:28;19.13;;;10.82;;
52043;SDS011;38053;53.100;6.078;2024-02-21T16:40:53;20.30;;;9.77;;
52043;SDS011;38053;53.100;6.078;2024-02-21T16:43:19;18.83;;;10.38;;
52043;SDS011;38053;53.100;6.078;2024-02-21T17:00:47;21.40;;;11.02;;
52043;SDS011;38053;53.100;6.078;2024-02-21T17:06:56;19.67;;;9.67;;
52043;SDS011;38053;53.100;6.078;2024-02-21T17:09:30;16.40;;;9.18;;
52043;SDS011;38053;53.100;6.078;2024-02-21T17:11:57;18.80;;;9.85;;
52043;SDS011;38053;53.100;6.078;2024-02-21T17:14:26;20.90;;;9.38;;
52043;SDS011;38053;53.100;6.078;2024-02-21T17:16:52;23.05;;;10.23;;
52043;SDS011;38053;53.100;6.078;2024-02-21T17:19:19;19.67;;;9.77;;
52043;SDS011;38053;53.100;6.078;2024-02-21T17:21:45;19.45;;;9.60;;
52043;SDS011;38053;53.100;6.078;2024-02-21T17:24:11;23.45;;;8.25;;
52043;SDS011;38053;53.100;6.078;2024-02-21T17:26:36;15.48;;;7.65;;
52043;SDS011;38053;53.100;6.078;2024-02-21T17:32:23;16.80;;;8.18;;
52043;SDS011;38053;53.100;6.078;2024-02-21T17:34:48;17.63;;;9.23;;
52043;SDS011;38053;53.100;6.078;2024-02-21T17:37:14;14.07;;;8.02;;
52043;SDS011;38053;53.100;6.078;2024-02-21T17:39:46;16.55;;;8.23;;
52043;SDS011;38053;53.100;6.078;2024-02-21T17:42:12;19.35;;;8.52;;